createdAt,value
2018-03-08T00:01:17.634Z,1.55
2018-03-08T00:03:46.696Z,1.65
2018-03-08T00:06:15.837Z,1.92
2018-03-08T00:08:44.717Z,1.50
2018-03-08T00:11:14.995Z,2.10
2018-03-08T00:13:44.997Z,1.92
2018-03-08T00:16:13.965Z,1.90
2018-03-08T00:18:42.634Z,2.03
2018-03-08T00:21:11.816Z,1.85
2018-03-08T00:23:41.188Z,1.85
2018-03-08T00:26:10.102Z,2.25
2018-03-08T00:28:40.240Z,1.92
2018-03-08T00:31:09.012Z,2.10
2018-03-08T00:33:38.107Z,1.75
2018-03-08T00:36:08.358Z,1.98
2018-03-08T00:38:37.040Z,1.73
2018-03-08T00:41:05.603Z,2.47
2018-03-08T00:46:27.169Z,2.42
2018-03-08T00:48:55.900Z,1.75
2018-03-08T00:51:24.873Z,1.95
2018-03-08T00:53:53.627Z,1.92
2018-03-08T00:56:22.208Z,1.77
2018-03-08T00:58:50.742Z,1.90
2018-03-08T01:01:21.135Z,2.15
2018-03-08T01:03:49.684Z,1.92
2018-03-08T01:06:18.394Z,2.10
2018-03-08T01:08:47.312Z,1.92
2018-03-08T01:11:15.968Z,1.65
2018-03-08T01:13:44.486Z,1.55
2018-03-08T01:16:13.584Z,1.80
2018-03-08T01:21:18.154Z,1.85
2018-03-08T01:23:46.938Z,1.80
2018-03-08T01:26:16.930Z,2.20
2018-03-08T01:28:45.530Z,1.92
2018-03-08T01:31:14.288Z,2.33
2018-03-08T01:33:43.768Z,2.20
2018-03-08T01:36:21.391Z,2.40
2018-03-08T01:38:50.091Z,1.70
2018-03-08T01:41:20.170Z,1.62
2018-03-08T01:43:48.827Z,2.03
2018-03-08T01:46:17.381Z,1.55
2018-03-08T01:48:45.902Z,2.08
2018-03-08T01:51:16.189Z,1.83
2018-03-08T01:53:44.796Z,2.08
2018-03-08T01:56:13.482Z,1.67
2018-03-08T01:58:42.112Z,1.87
2018-03-08T02:01:11.037Z,2.20
2018-03-08T02:03:39.563Z,2.35
2018-03-08T02:06:08.378Z,1.90
2018-03-08T02:08:37.001Z,2.10
2018-03-08T02:11:07.145Z,2.50
2018-03-08T02:13:35.728Z,2.22
2018-03-08T05:47:09.786Z,4.83
2018-03-08T05:49:39.626Z,5.77
2018-03-08T05:52:09.682Z,5.83
2018-03-08T05:54:46.661Z,5.13
2018-03-08T05:57:16.369Z,5.00
2018-03-08T05:59:46.225Z,3.40
2018-03-08T06:02:15.940Z,3.50
2018-03-08T06:04:46.272Z,3.90
2018-03-08T06:07:15.870Z,4.33
2018-03-08T06:09:45.722Z,3.60
2018-03-08T06:12:15.582Z,5.40
2018-03-08T06:14:45.269Z,7.00
2018-03-08T06:17:14.751Z,5.27
2018-03-08T06:19:44.229Z,4.80
2018-03-08T06:22:13.983Z,5.20
2018-03-08T06:24:43.720Z,4.93
2018-03-08T06:27:13.412Z,5.17
2018-03-08T06:29:42.818Z,4.90
2018-03-08T06:32:12.338Z,3.80
2018-03-08T06:34:41.731Z,5.60
2018-03-08T06:37:11.312Z,3.60
2018-03-08T06:39:42.277Z,4.47
2018-03-08T06:42:11.823Z,4.47
2018-03-08T06:44:41.245Z,4.23
2018-03-08T06:47:12.914Z,6.30
2018-03-08T06:49:42.444Z,3.60
2018-03-08T06:52:13.061Z,3.33
2018-03-08T06:54:42.650Z,2.37
2018-03-08T06:57:12.143Z,3.10
2018-03-08T06:59:41.588Z,2.37
2018-03-08T07:02:11.344Z,2.33
2018-03-08T07:04:41.002Z,2.87
2018-03-08T07:07:12.618Z,2.23
2018-03-08T07:09:42.040Z,2.53
2018-03-08T07:12:11.515Z,2.90
2018-03-08T07:14:41.151Z,2.40
2018-03-08T07:17:10.822Z,2.27
2018-03-08T07:19:42.841Z,2.37
2018-03-08T07:22:13.050Z,1.93
2018-03-08T07:24:43.537Z,2.20
2018-03-08T07:27:12.895Z,2.00
2018-03-08T07:29:42.342Z,1.90
2018-03-08T07:32:11.921Z,1.92
2018-03-08T07:34:42.797Z,2.08
2018-03-08T07:37:14.237Z,1.60
2018-03-08T07:39:43.715Z,1.65
2018-03-08T07:42:13.071Z,1.40
2018-03-08T07:44:42.559Z,1.20
2018-03-08T07:47:12.335Z,0.90
2018-03-08T07:49:42.994Z,1.42
2018-03-08T07:52:12.560Z,1.10
2018-03-08T07:54:41.905Z,1.40
2018-03-08T07:59:47.555Z,1.27
2018-03-08T08:02:16.974Z,1.48
2018-03-08T08:05:00.867Z,1.45
2018-03-08T08:09:41.150Z,1.50
2018-03-08T08:12:10.470Z,1.92
2018-03-08T08:14:39.786Z,1.40
2018-03-08T08:17:09.333Z,1.40
2018-03-08T08:19:38.638Z,1.30
2018-03-08T08:22:08.241Z,1.67
2018-03-08T08:24:38.967Z,1.67
2018-03-08T08:27:08.842Z,1.42
2018-03-08T08:29:39.593Z,1.50
2018-03-08T08:32:09.392Z,1.20
2018-03-08T08:34:38.900Z,1.60
2018-03-08T08:37:08.761Z,1.58
2018-03-08T08:39:38.058Z,1.10
2018-03-08T08:42:08.545Z,1.23
2018-03-08T08:44:38.160Z,1.17
2018-03-08T08:47:08.169Z,1.40
2018-03-08T08:49:39.332Z,1.35
2018-03-08T08:52:09.197Z,1.83
2018-03-08T08:54:40.565Z,1.62
2018-03-08T08:57:10.110Z,1.52
2018-03-08T08:59:39.299Z,1.55
2018-03-08T09:02:09.205Z,1.02
2018-03-08T09:04:39.807Z,1.52
2018-03-08T09:07:09.321Z,1.40
2018-03-08T09:10:22.084Z,1.30
2018-03-08T09:12:51.713Z,1.50
2018-03-08T09:15:21.028Z,1.33
2018-03-08T09:17:50.509Z,1.45
2018-03-08T09:20:19.575Z,1.50
2018-03-08T09:22:48.926Z,1.62
2018-03-08T09:25:18.374Z,1.35
2018-03-08T09:27:47.929Z,1.10
2018-03-08T09:30:17.646Z,1.20
2018-03-08T09:32:47.253Z,1.20
2018-03-08T09:35:19.582Z,1.42
2018-03-08T09:37:49.131Z,1.58
2018-03-08T09:40:18.402Z,1.77
2018-03-08T09:42:47.592Z,1.98
2018-03-08T09:45:17.160Z,1.45
2018-03-08T09:47:46.527Z,1.55
2018-03-08T09:50:15.860Z,1.90
2018-03-08T09:52:45.433Z,1.40
2018-03-08T09:55:14.614Z,2.00
2018-03-08T09:57:43.945Z,1.58
2018-03-08T10:00:14.545Z,1.35
2018-03-08T10:02:44.271Z,1.65
2018-03-08T10:05:13.587Z,1.58
2018-03-08T10:07:43.092Z,1.40
2018-03-08T10:10:12.861Z,1.62
2018-03-08T10:12:42.177Z,1.75
2018-03-08T10:15:11.700Z,2.00
2018-03-08T10:17:40.804Z,1.42
2018-03-08T10:20:10.383Z,1.42
2018-03-08T10:22:40.299Z,1.27
2018-03-08T10:25:10.222Z,1.30
2018-03-08T10:27:40.745Z,1.27
2018-03-08T10:30:11.105Z,1.45
2018-03-08T10:32:40.434Z,1.45
2018-03-08T10:35:10.207Z,1.40
2018-03-08T10:37:40.019Z,1.50
2018-03-08T10:40:10.093Z,1.62
2018-03-08T10:42:44.893Z,1.48
2018-03-08T10:45:08.965Z,1.15
2018-03-08T10:47:38.088Z,1.33
2018-03-08T10:50:07.595Z,1.77
2018-03-08T10:52:36.678Z,1.42
2018-03-08T10:55:05.819Z,2.28
2018-03-08T10:57:34.924Z,1.90
2018-03-08T11:00:04.284Z,1.10
2018-03-08T11:02:34.994Z,1.52
2018-03-08T11:05:04.347Z,1.90
2018-03-08T11:07:33.408Z,1.48
2018-03-08T11:10:02.573Z,1.50
2018-03-08T11:12:32.893Z,1.17
2018-03-08T11:15:02.083Z,1.02
2018-03-08T11:17:31.119Z,1.55
2018-03-08T11:20:00.114Z,1.27
2018-03-08T11:22:29.769Z,1.20
2018-03-08T11:24:59.040Z,1.73
2018-03-08T11:27:28.092Z,1.55
2018-03-08T11:29:57.430Z,1.73
2018-03-08T11:32:28.642Z,1.30
2018-03-08T11:34:57.866Z,1.15
2018-03-08T11:37:26.882Z,1.05
2018-03-08T11:39:55.963Z,1.45
2018-03-08T11:42:25.730Z,1.80
2018-03-08T11:44:54.689Z,1.05
2018-03-08T11:47:24.741Z,1.02
2018-03-08T11:49:53.067Z,1.15
2018-03-08T11:52:22.410Z,1.40
2018-03-08T11:54:51.656Z,1.30
2018-03-08T11:57:21.048Z,0.85
2018-03-08T11:59:50.277Z,1.12
2018-03-08T12:02:19.287Z,1.17
2018-03-08T12:04:48.365Z,1.17
2018-03-08T12:07:17.575Z,0.90
2018-03-08T12:09:46.748Z,0.80
2018-03-08T12:12:16.127Z,1.23
2018-03-08T12:14:45.191Z,0.82
2018-03-08T12:17:14.247Z,1.00
2018-03-08T12:19:43.346Z,0.88
2018-03-08T12:22:12.774Z,0.93
2018-03-08T12:24:41.985Z,0.85
2018-03-08T12:27:11.176Z,0.52
2018-03-08T12:29:40.382Z,0.82
2018-03-08T12:32:12.007Z,0.95
2018-03-08T12:34:41.116Z,0.77
2018-03-08T12:37:11.163Z,1.00
2018-03-08T12:39:40.446Z,0.90
2018-03-08T12:42:10.202Z,0.98
2018-03-08T12:44:50.575Z,0.75
2018-03-08T12:47:20.301Z,0.60
2018-03-08T12:49:49.487Z,0.68
2018-03-08T12:52:18.796Z,0.55
2018-03-08T12:54:47.838Z,0.70
2018-03-08T12:57:16.914Z,0.70
2018-03-08T12:59:46.314Z,0.60
2018-03-08T13:02:15.472Z,0.52
2018-03-08T13:04:45.243Z,1.50
2018-03-08T13:07:14.287Z,0.93
2018-03-08T13:09:43.668Z,0.70
2018-03-08T13:12:12.792Z,0.55
2018-03-08T13:14:41.764Z,0.62
2018-03-08T13:17:10.862Z,0.80
2018-03-08T13:19:40.486Z,0.68
2018-03-08T13:22:10.271Z,0.55
2018-03-08T13:24:39.448Z,0.70
2018-03-08T13:27:09.226Z,0.65
2018-03-08T13:29:38.776Z,0.80
2018-03-08T13:32:08.185Z,0.80
2018-03-08T13:34:38.593Z,0.90
2018-03-08T13:37:08.736Z,0.50
2018-03-08T13:39:37.822Z,0.60
2018-03-08T13:42:07.078Z,0.73
2018-03-08T13:44:36.083Z,0.52
2018-03-08T13:47:05.297Z,0.77
2018-03-08T13:49:39.022Z,0.50
2018-03-08T13:52:08.585Z,0.85
2018-03-08T13:54:37.768Z,0.85
2018-03-08T13:57:07.232Z,0.50
2018-03-08T13:59:36.160Z,0.77
2018-03-08T14:02:06.042Z,0.70
2018-03-08T14:04:35.119Z,0.98
2018-03-08T14:07:06.894Z,0.80
2018-03-08T14:09:35.979Z,0.55
2018-03-08T14:12:05.664Z,0.70
2018-03-08T14:14:34.889Z,0.82
2018-03-08T14:17:04.633Z,0.60
2018-03-08T14:19:33.733Z,1.10
2018-03-08T14:22:02.911Z,1.00
2018-03-08T14:24:31.970Z,0.85
2018-03-08T14:27:05.762Z,0.60
2018-03-08T14:29:35.280Z,0.70
2018-03-08T14:32:07.951Z,0.62
2018-03-08T14:34:37.072Z,0.55
2018-03-08T14:37:06.213Z,1.17
2018-03-08T14:39:35.227Z,0.85
2018-03-08T14:42:04.319Z,1.08
2018-03-08T14:44:33.545Z,0.80
2018-03-08T14:47:02.617Z,0.43
2018-03-08T14:49:31.797Z,0.82
2018-03-08T14:52:00.835Z,0.80
2018-03-08T14:54:29.886Z,0.95
2018-03-08T14:57:06.877Z,0.80
2018-03-08T14:59:49.439Z,0.90
2018-03-08T15:02:19.740Z,0.80
2018-03-08T15:04:48.981Z,0.52
2018-03-08T15:07:18.082Z,0.85
2018-03-08T15:09:47.165Z,1.05
2018-03-08T15:12:17.686Z,0.80
2018-03-08T15:14:46.602Z,0.80
2018-03-08T15:17:15.741Z,0.85
2018-03-08T15:19:44.744Z,0.60
2018-03-08T15:22:14.151Z,0.60
2018-03-08T15:24:43.312Z,1.02
2018-03-08T15:27:12.457Z,0.50
2018-03-08T15:29:42.444Z,0.40
2018-03-08T15:32:11.845Z,0.55
2018-03-08T15:34:40.880Z,0.40
2018-03-08T15:37:10.091Z,0.52
2018-03-08T15:39:39.018Z,0.47
2018-03-08T15:42:08.587Z,0.75
2018-03-08T15:44:38.383Z,0.85
2018-03-08T15:47:07.577Z,0.45
2018-03-08T15:49:36.725Z,0.57
2018-03-08T15:52:05.765Z,0.60
2018-03-08T15:54:34.739Z,0.70
2018-03-08T15:57:03.848Z,0.30
2018-03-08T15:59:33.141Z,0.68
2018-03-08T16:02:02.239Z,0.75
2018-03-08T16:04:31.437Z,0.85
2018-03-08T16:07:14.643Z,0.70
2018-03-08T16:09:59.562Z,0.60
2018-03-08T16:12:28.700Z,0.80
2018-03-08T16:14:58.293Z,0.70
2018-03-08T16:17:27.551Z,0.85
2018-03-08T16:19:56.549Z,1.00
2018-03-08T16:22:25.615Z,0.80
2018-03-08T16:24:55.908Z,0.82
2018-03-08T16:27:24.979Z,1.05
2018-03-08T16:29:54.086Z,0.80
2018-03-08T16:32:23.286Z,0.73
2018-03-08T16:34:52.731Z,0.68
2018-03-08T16:37:22.306Z,0.77
2018-03-08T16:39:51.366Z,0.68
2018-03-08T16:43:12.993Z,0.60
2018-03-08T16:45:42.757Z,0.85
2018-03-08T16:48:12.306Z,0.80
2018-03-08T16:50:41.245Z,0.85
2018-03-08T16:53:10.555Z,1.00
2018-03-08T16:55:40.160Z,0.90
2018-03-08T16:58:09.728Z,1.40
2018-03-08T17:00:38.963Z,0.80
2018-03-08T17:03:08.674Z,1.37
2018-03-08T17:05:37.836Z,0.88
2018-03-08T17:08:06.890Z,0.80
2018-03-08T17:10:36.138Z,1.05
2018-03-08T17:13:05.467Z,0.88
2018-03-08T17:15:34.587Z,1.35
2018-03-08T17:18:03.788Z,1.08
2018-03-08T17:20:40.464Z,1.40
2018-03-08T17:23:10.001Z,0.98
2018-03-08T17:25:39.439Z,0.82
2018-03-08T17:28:10.133Z,1.20
2018-03-08T17:30:39.403Z,1.33
2018-03-08T17:33:08.800Z,1.40
2018-03-08T17:35:39.214Z,1.10
2018-03-08T17:38:09.139Z,1.15
2018-03-08T17:40:38.353Z,0.90
2018-03-08T17:43:07.443Z,1.30
2018-03-08T17:45:36.544Z,1.12
2018-03-08T17:48:05.911Z,1.20
2018-03-08T17:50:36.527Z,1.20
2018-03-08T17:53:05.561Z,1.62
2018-03-08T17:55:34.670Z,1.10
2018-03-08T17:58:03.849Z,1.00
2018-03-08T18:00:34.833Z,1.33
2018-03-08T18:03:04.317Z,1.30
2018-03-08T18:05:33.444Z,1.50
2018-03-08T18:08:02.569Z,1.45
2018-03-08T18:10:32.124Z,1.65
2018-03-08T18:13:01.076Z,1.65
2018-03-08T18:15:30.274Z,1.90
2018-03-08T18:17:59.458Z,1.85
2018-03-08T18:20:28.996Z,2.20
2018-03-08T18:22:58.596Z,1.85
2018-03-08T18:25:27.870Z,2.28
2018-03-08T18:27:57.170Z,1.83
2018-03-08T18:30:26.275Z,1.80
2018-03-08T18:32:55.661Z,1.75
2018-03-08T18:35:24.647Z,1.40
2018-03-08T18:37:54.050Z,1.50
2018-03-08T18:40:23.105Z,1.62
2018-03-08T18:42:52.804Z,3.95
2018-03-08T18:45:22.058Z,4.85
2018-03-08T18:47:51.126Z,1.83
2018-03-08T18:50:21.420Z,2.20
2018-03-08T18:52:50.490Z,2.03
2018-03-08T18:55:20.010Z,1.50
2018-03-08T18:57:49.083Z,2.37
2018-03-08T19:00:18.374Z,1.83
2018-03-08T19:02:48.379Z,1.87
2018-03-08T19:05:17.710Z,1.62
2018-03-08T19:07:47.479Z,1.67
2018-03-08T19:10:17.381Z,1.73
2018-03-08T19:12:47.358Z,1.92
2018-03-08T19:18:10.658Z,1.92
2018-03-08T19:20:56.795Z,1.83
2018-03-08T19:23:26.025Z,1.73
2018-03-08T19:25:56.898Z,2.12
2018-03-08T19:28:26.376Z,1.52
2018-03-08T19:34:04.076Z,1.65
2018-03-08T19:36:34.174Z,1.70
2018-03-08T19:39:14.349Z,1.30
2018-03-08T19:41:44.025Z,1.42
2018-03-08T19:44:13.555Z,1.58
2018-03-08T19:46:42.884Z,2.05
2018-03-08T19:49:13.185Z,1.60
2018-03-08T19:51:42.728Z,1.70
2018-03-08T19:54:16.164Z,1.85
2018-03-08T19:56:46.499Z,1.85
2018-03-08T19:59:15.847Z,1.67
2018-03-08T20:01:45.082Z,1.67
2018-03-08T20:04:16.897Z,1.62
2018-03-08T20:06:47.813Z,1.95
2018-03-08T20:09:17.471Z,1.85
2018-03-08T20:11:47.508Z,1.60
2018-03-08T20:14:19.779Z,2.08
2018-03-08T20:16:49.486Z,1.73
2018-03-08T20:19:19.124Z,1.70
2018-03-08T20:21:48.492Z,1.30
2018-03-08T20:24:17.717Z,1.70
2018-03-08T20:26:48.133Z,1.60
2018-03-08T20:29:17.716Z,1.58
2018-03-08T20:31:47.320Z,1.55
2018-03-08T20:34:21.301Z,1.90
2018-03-08T20:36:50.933Z,1.75
2018-03-08T20:39:21.002Z,1.62
2018-03-08T20:41:50.945Z,2.50
2018-03-08T20:44:21.772Z,1.95
2018-03-08T20:46:51.529Z,1.15
2018-03-08T20:49:21.430Z,1.90
2018-03-08T20:51:51.194Z,1.50
2018-03-08T20:54:21.658Z,1.48
2018-03-08T20:56:51.718Z,1.80
2018-03-08T20:59:21.568Z,1.60
2018-03-08T21:07:03.667Z,1.60
2018-03-08T21:09:34.890Z,1.90
2018-03-08T21:12:04.418Z,1.17
2018-03-08T21:14:34.311Z,1.35
2018-03-08T21:19:57.038Z,1.48
2018-03-08T21:22:33.893Z,1.45
2018-03-08T21:25:03.876Z,1.58
2018-03-08T21:27:34.144Z,1.05
2018-03-08T21:30:05.389Z,1.40
2018-03-08T21:32:34.949Z,1.05
2018-03-08T21:35:04.322Z,1.25
2018-03-08T21:37:33.303Z,1.12
2018-03-08T21:40:03.321Z,0.90
2018-03-08T21:42:33.812Z,1.40
2018-03-08T21:45:02.918Z,1.20
2018-03-08T21:47:32.055Z,1.12
2018-03-08T21:50:01.222Z,1.27
2018-03-08T21:52:30.387Z,1.10
2018-03-08T21:55:25.241Z,1.25
2018-03-08T22:01:47.151Z,2.55
2018-03-08T22:07:25.004Z,1.17
2018-03-08T22:11:04.463Z,1.23
2018-03-08T22:13:33.572Z,1.50
2018-03-08T22:16:04.907Z,1.27
2018-03-08T22:18:33.817Z,1.10
2018-03-08T22:21:03.010Z,1.45
2018-03-08T22:23:32.065Z,1.55
2018-03-08T22:26:11.857Z,1.90
2018-03-08T22:28:45.030Z,1.67
2018-03-08T22:31:14.330Z,1.20
2018-03-08T22:33:44.905Z,1.65
2018-03-08T22:36:14.207Z,1.65
2018-03-08T22:38:43.582Z,1.40
2018-03-08T22:41:12.736Z,1.62
2018-03-08T22:43:43.359Z,1.42
2018-03-08T22:46:12.967Z,2.10
2018-03-08T22:48:43.124Z,2.55
2018-03-08T22:51:12.586Z,3.35
2018-03-08T22:53:43.735Z,3.42
2018-03-08T22:56:12.992Z,3.55
2018-03-08T22:58:42.191Z,3.00
2018-03-08T23:01:16.568Z,3.08
2018-03-08T23:03:45.914Z,3.05
2018-03-08T23:08:43.701Z,3.20
2018-03-08T23:11:13.075Z,3.50
2018-03-08T23:13:42.521Z,3.47
2018-03-08T23:16:11.975Z,3.12
2018-03-08T23:18:41.642Z,3.53
2018-03-08T23:21:40.303Z,3.20
2018-03-08T23:24:22.012Z,3.35
2018-03-08T23:26:51.377Z,2.75
2018-03-08T23:29:21.703Z,3.33
2018-03-08T23:31:51.292Z,2.75
2018-03-08T23:34:20.666Z,3.65
2018-03-08T23:36:50.114Z,3.10
2018-03-08T23:39:21.816Z,3.00
2018-03-08T23:41:51.363Z,3.12
2018-03-08T23:44:22.155Z,4.57
2018-03-08T23:46:51.445Z,4.30
2018-03-08T23:49:20.990Z,3.75
2018-03-08T23:51:50.616Z,3.17
2018-03-08T23:54:20.074Z,3.33
2018-03-08T23:56:50.046Z,4.20
2018-03-08T23:59:19.474Z,3.85
